Time;durP1;ratioP1;P1;durP2;ratioP2;P2;SDS_P1;SDS_P2;PMS_P1;PMS_P2;Temp;Humidity;BMP_temperature;BMP_pressure;BME280_temperature;BME280_humidity;BME280_pressure;Samples;Min_cycle;Max_cycle;Signal;HPM_P1;HPM_P2
2022/07/06 00:03:08;;;;;;;2.60;2.40;;;;;;;20.98;64.62;99040.45;235397;1203;139054;-62
2022/07/06 00:08:12;;;;;;;2.80;2.60;;;;;;;20.87;64.52;99036.63;235989;1202;138499;-61
2022/07/06 00:13:15;;;;;;;4.20;2.20;;;;;;;20.78;64.55;99041.70;235860;1203;139363;-60
2022/07/06 00:18:18;;;;;;;3.80;2.80;;;;;;;20.72;64.55;99048.96;235477;1204;139126;-61
2022/07/06 00:23:22;;;;;;;3.60;2.40;;;;;;;20.67;64.75;99045.30;235875;1202;138465;-62
2022/07/06 00:28:25;;;;;;;3.00;2.60;;;;;;;20.68;64.87;99052.81;235384;1203;138448;-61
2022/07/06 00:33:28;;;;;;;4.80;2.80;;;;;;;20.64;64.95;99046.61;235915;1204;138384;-60
2022/07/06 00:38:31;;;;;;;6.60;2.40;;;;;;;20.63;64.90;99046.52;235744;1204;139835;-61
2022/07/06 00:44:08;;;;;;;3.20;2.60;;;;;;;20.69;65.07;99045.05;235768;1203;139645;-62
2022/07/06 00:50:13;;;;;;;2.90;2.70;;;;;;;20.66;64.97;99038.42;235500;1204;138199;-60
2022/07/06 00:54:35;;;;;;;2.60;2.40;;;;;;;20.63;64.84;99029.91;235806;1204;138751;-60
2022/07/06 00:59:39;;;;;;;2.90;2.40;;;;;;;20.60;64.90;99027.55;235498;1203;139162;-62
2022/07/06 01:04:42;;;;;;;2.40;2.00;;;;;;;20.58;64.93;99037.13;235871;1203;138884;-60
2022/07/06 01:09:45;;;;;;;2.70;1.90;;;;;;;20.57;64.89;99032.86;235677;1202;139334;-61
2022/07/06 01:14:49;;;;;;;2.30;2.00;;;;;;;20.60;64.86;99030.25;235796;1203;139426;-60
2022/07/06 01:19:52;;;;;;;3.20;2.30;;;;;;;20.59;64.81;99034.89;235588;1203;138669;-60
2022/07/06 01:24:55;;;;;;;2.60;1.80;;;;;;;20.54;64.77;99031.94;235969;1204;138338;-61
2022/07/06 01:29:59;;;;;;;5.00;2.10;;;;;;;20.47;64.73;99033.58;235830;1203;138154;-59
2022/07/06 01:35:03;;;;;;;2.50;1.80;;;;;;;20.39;64.86;99035.11;235828;1203;137969;-59
2022/07/06 01:40:08;;;;;;;2.00;1.80;;;;;;;20.36;64.82;99031.39;235633;1202;139181;-60
2022/07/06 01:45:11;;;;;;;1.90;1.70;;;;;;;20.34;64.84;99037.17;235774;1204;140432;-61
2022/07/06 01:50:15;;;;;;;3.80;2.10;;;;;;;20.32;64.91;99044.94;235729;1204;139808;-62
2022/07/06 01:55:20;;;;;;;2.60;2.00;;;;;;;20.30;65.07;99038.30;235814;1203;138759;-63
2022/07/06 02:00:23;;;;;;;3.50;2.00;;;;;;;20.29;65.15;99042.75;235868;1203;139149;-61
2022/07/06 02:05:27;;;;;;;2.60;1.90;;;;;;;20.32;65.11;99051.42;235375;1202;139679;-61
2022/07/06 02:10:30;;;;;;;2.40;2.10;;;;;;;20.31;65.20;99049.92;235799;1204;138898;-61
2022/07/06 02:15:33;;;;;;;3.60;2.20;;;;;;;20.34;65.28;99049.84;235938;1203;138674;-60
2022/07/06 02:20:36;;;;;;;2.70;2.50;;;;;;;20.30;65.25;99041.23;235846;1203;138536;-62
2022/07/06 02:25:40;;;;;;;3.00;2.60;;;;;;;20.32;65.31;99039.63;235531;1203;138537;-57
2022/07/06 02:30:43;;;;;;;3.50;2.30;;;;;;;20.31;65.44;99040.57;235831;1203;138607;-58
2022/07/06 02:35:47;;;;;;;4.00;2.20;;;;;;;20.33;65.29;99045.02;235723;1203;139089;-58
2022/07/06 02:40:51;;;;;;;3.40;2.20;;;;;;;20.35;65.40;99044.38;235791;1203;139488;-58
2022/07/06 02:45:54;;;;;;;4.40;2.30;;;;;;;20.38;65.46;99045.48;235645;1203;138399;-58
2022/07/06 02:50:58;;;;;;;6.10;2.50;;;;;;;20.38;65.48;99052.28;235726;1204;138261;-56
2022/07/06 02:56:02;;;;;;;3.50;2.50;;;;;;;20.37;65.38;99050.95;235725;1203;139351;-57
2022/07/06 03:01:08;;;;;;;6.10;2.50;;;;;;;20.37;65.46;99052.21;235752;1204;138216;-57
2022/07/06 03:06:12;;;;;;;5.50;2.90;;;;;;;20.37;65.38;99059.81;235966;1203;139095;-58
2022/07/06 03:11:15;;;;;;;4.20;3.80;;;;;;;20.46;65.58;99061.19;235781;1204;139655;-58
2022/07/06 03:16:18;;;;;;;5.60;4.20;;;;;;;20.51;65.59;99058.14;235958;1203;138693;-59
2022/07/06 03:21:23;;;;;;;7.00;4.30;;;;;;;20.56;65.55;99057.02;235775;1203;139081;-59
2022/07/06 03:26:26;;;;;;;7.70;3.80;;;;;;;20.54;65.38;99054.67;235752;1203;138759;-58
2022/07/06 03:31:30;;;;;;;5.30;3.90;;;;;;;20.53;65.17;99058.27;235690;1202;138913;-60
2022/07/06 03:36:34;;;;;;;5.80;4.00;;;;;;;20.52;65.16;99057.48;235940;1203;139425;-60
2022/07/06 03:41:41;;;;;;;4.50;3.80;;;;;;;20.50;65.16;99066.61;235611;1203;139216;-60
2022/07/06 03:46:45;;;;;;;4.10;3.20;;;;;;;20.47;64.87;99076.94;235848;1203;138285;-59
2022/07/06 03:51:49;;;;;;;4.30;3.90;;;;;;;20.42;64.80;99089.03;235637;1203;139052;-58
2022/07/06 03:56:52;;;;;;;4.50;3.60;;;;;;;20.38;64.78;99093.36;235725;1203;137972;-59
2022/07/06 04:01:55;;;;;;;4.60;3.60;;;;;;;20.35;64.81;99097.42;235869;1203;139626;-59
2022/07/06 04:06:58;;;;;;;5.30;4.20;;;;;;;20.37;64.96;99085.58;235870;1203;139138;-59
2022/07/06 04:12:02;;;;;;;7.70;4.30;;;;;;;20.47;65.01;99087.74;235793;1203;138583;-60
2022/07/06 04:22:27;;;;;;;6.60;4.70;;;;;;;20.45;64.81;99088.72;235499;1204;138542;-61
2022/07/06 04:27:30;;;;;;;5.80;3.90;;;;;;;20.43;64.73;99090.39;235132;1204;138406;-62
2022/07/06 04:32:34;;;;;;;5.60;3.80;;;;;;;20.39;64.60;99093.67;235971;1203;139169;-62
2022/07/06 04:37:37;;;;;;;6.70;4.00;;;;;;;20.38;64.71;99094.45;235780;1203;138627;-62
2022/07/06 04:42:40;;;;;;;4.70;3.90;;;;;;;20.35;64.68;99099.65;235712;1203;138656;-63
2022/07/06 04:47:44;;;;;;;5.70;4.20;;;;;;;20.30;64.63;99112.95;235862;1202;138522;-61
2022/07/06 04:52:47;;;;;;;6.20;4.10;;;;;;;20.30;64.66;99135.29;235887;1204;140463;-61
2022/07/06 04:57:53;;;;;;;7.40;3.80;;;;;;;20.25;64.57;99131.80;235745;1203;138528;-57
2022/07/06 05:02:57;;;;;;;5.90;3.90;;;;;;;20.30;64.64;99142.05;235737;1203;138798;-57
2022/07/06 05:08:01;;;;;;;8.00;3.40;;;;;;;20.38;64.73;99147.86;235734;1204;139414;-61
2022/07/06 05:13:04;;;;;;;8.00;3.70;;;;;;;20.46;64.78;99154.26;235366;1204;139680;-58
2022/07/06 05:18:07;;;;;;;6.20;3.40;;;;;;;20.51;64.69;99151.35;235884;1203;138379;-61
2022/07/06 05:23:11;;;;;;;6.00;3.30;;;;;;;20.55;64.47;99152.11;235731;1203;138935;-58
2022/07/06 05:28:14;;;;;;;80.20;69.10;;;;;;;20.60;64.43;99153.23;235627;1202;138808;-60
2022/07/06 05:33:17;;;;;;;11.90;6.10;;;;;;;20.73;64.39;99161.27;235813;1203;138699;-59
2022/07/06 05:38:21;;;;;;;7.00;3.30;;;;;;;20.81;64.15;99150.17;235864;1203;139734;-60
2022/07/06 05:43:25;;;;;;;4.80;2.80;;;;;;;20.97;64.36;99157.85;235820;1203;139200;-60
2022/07/06 05:53:51;;;;;;;10.60;8.80;;;;;;;21.54;64.17;99152.84;235650;1203;139714;-60
2022/07/06 05:58:54;;;;;;;7.30;5.30;;;;;;;21.64;63.61;99151.00;234504;1203;139000;-60
2022/07/06 06:03:59;;;;;;;74.90;49.30;;;;;;;21.72;63.16;99159.89;235455;1202;138367;-59
2022/07/06 06:09:02;;;;;;;16.10;11.30;;;;;;;21.73;62.83;99152.07;235766;1202;139557;-58
2022/07/06 06:14:05;;;;;;;8.60;5.50;;;;;;;21.82;62.93;99153.47;235721;1203;139341;-58
2022/07/06 06:19:09;;;;;;;5.10;4.10;;;;;;;21.84;62.25;99149.80;235588;1203;138580;-57
2022/07/06 06:24:12;;;;;;;60.10;42.90;;;;;;;21.88;62.11;99152.08;235919;1203;138060;-58
2022/07/06 06:29:15;;;;;;;8.30;4.60;;;;;;;21.91;61.61;99146.73;235259;1203;138719;-59
2022/07/06 06:34:18;;;;;;;8.90;4.60;;;;;;;21.83;61.16;99154.95;235822;1202;138171;-58
2022/07/06 06:39:21;;;;;;;7.90;5.00;;;;;;;21.79;61.15;99164.40;235593;1204;138610;-61
2022/07/06 06:44:24;;;;;;;91.10;72.10;;;;;;;21.84;61.20;99165.67;235766;1203;138056;-62
2022/07/06 06:49:27;;;;;;;8.80;6.20;;;;;;;21.85;60.92;99169.90;235889;1203;138267;-64
2022/07/06 06:54:30;;;;;;;5.10;3.40;;;;;;;21.83;60.68;99180.59;235844;1203;138597;-63
2022/07/06 06:59:33;;;;;;;5.90;4.00;;;;;;;21.82;60.57;99188.83;235736;1203;138956;-64
2022/07/06 07:04:36;;;;;;;5.90;3.90;;;;;;;21.85;60.47;99181.83;235870;1203;138567;-58
2022/07/06 07:09:39;;;;;;;6.90;3.60;;;;;;;21.84;60.20;99175.27;235731;1202;138420;-58
2022/07/06 07:14:43;;;;;;;20.80;17.20;;;;;;;21.83;60.25;99168.48;235776;1203;137992;-57
2022/07/06 07:19:46;;;;;;;9.70;7.40;;;;;;;21.89;60.27;99169.45;235786;1203;139424;-60
2022/07/06 07:24:49;;;;;;;6.20;4.20;;;;;;;21.99;60.42;99172.77;235966;1202;138916;-58
2022/07/06 07:29:53;;;;;;;5.70;4.30;;;;;;;22.15;60.04;99182.03;235840;1202;137871;-59
2022/07/06 07:34:56;;;;;;;6.30;3.50;;;;;;;22.17;59.65;99178.19;235936;1203;138308;-59
2022/07/06 07:39:59;;;;;;;9.80;4.70;;;;;;;22.17;59.73;99184.40;235717;1202;138875;-59
2022/07/06 07:45:04;;;;;;;9.80;5.40;;;;;;;22.26;59.94;99188.48;235760;1203;138629;-59
2022/07/06 07:50:09;;;;;;;4.10;3.00;;;;;;;22.41;59.90;99190.88;235844;1203;140914;-63
2022/07/06 07:55:13;;;;;;;5.70;3.70;;;;;;;22.49;59.58;99193.44;235900;1203;139516;-60
2022/07/06 08:00:36;;;;;;;5.70;3.70;;;;;;;22.54;59.53;99193.38;235891;1200;139066;-63
2022/07/06 08:05:39;;;;;;;9.00;5.60;;;;;;;22.65;59.39;99200.14;235798;1204;138630;-61
2022/07/06 08:10:42;;;;;;;4.00;2.70;;;;;;;22.86;59.96;99196.59;235763;1202;138512;-59
2022/07/06 08:16:05;;;;;;;87.70;68.50;;;;;;;22.99;58.76;99201.52;235734;1203;138352;-60
2022/07/06 08:21:08;;;;;;;5.80;4.70;;;;;;;23.04;58.42;99193.91;235739;1203;138812;-60
2022/07/06 08:26:29;;;;;;;3.20;2.90;;;;;;;23.14;58.29;99192.36;235865;1203;139221;-60
2022/07/06 08:31:34;;;;;;;3.50;2.40;;;;;;;23.14;57.64;99197.80;235780;1203;137902;-60
2022/07/06 08:36:57;;;;;;;4.70;2.70;;;;;;;23.11;57.45;99197.95;235961;1202;138245;-60
2022/07/06 08:42:01;;;;;;;5.10;2.10;;;;;;;23.11;57.34;99198.86;235746;1202;138590;-59
2022/07/06 08:47:07;;;;;;;3.80;3.00;;;;;;;23.15;57.18;99206.59;235702;1203;138151;-61
2022/07/06 08:52:11;;;;;;;58.90;52.60;;;;;;;23.11;56.84;99203.68;235706;1203;138639;-57
2022/07/06 08:57:15;;;;;;;7.50;4.80;;;;;;;23.14;56.81;99201.30;235668;1203;138895;-57
2022/07/06 09:02:19;;;;;;;4.50;3.20;;;;;;;23.15;56.82;99216.75;235664;1204;139074;-57
2022/07/06 09:07:22;;;;;;;29.50;24.30;;;;;;;23.14;56.58;99227.67;235727;1202;138955;-59
2022/07/06 09:12:45;;;;;;;15.20;10.10;;;;;;;22.90;56.89;99235.20;235821;1202;139995;-59
2022/07/06 09:17:48;;;;;;;18.00;9.00;;;;;;;22.51;57.02;99244.66;235652;1202;138563;-58
2022/07/06 09:22:57;;;;;;;11.10;9.30;;;;;;;21.99;57.31;99248.54;235653;1202;139939;-58
2022/07/06 09:28:01;;;;;;;12.40;9.80;;;;;;;21.58;58.05;99247.48;235954;1203;139360;-58
2022/07/06 09:33:07;;;;;;;15.80;11.10;;;;;;;21.39;58.80;99236.75;235673;1203;138866;-60
2022/07/06 09:38:14;;;;;;;128.90;104.40;;;;;;;21.38;59.29;99226.50;235652;1203;138954;-57
2022/07/06 09:43:19;;;;;;;14.50;11.90;;;;;;;21.35;59.97;99218.60;235882;1203;139354;-59
2022/07/06 09:48:24;;;;;;;13.70;10.70;;;;;;;21.42;60.36;99220.20;235834;1203;139095;-60
2022/07/06 09:53:28;;;;;;;13.00;10.40;;;;;;;21.59;60.83;99212.09;235720;1203;138703;-58
2022/07/06 09:58:31;;;;;;;18.90;15.20;;;;;;;21.79;60.88;99211.40;235771;1204;138438;-60
2022/07/06 10:03:54;;;;;;;16.10;10.20;;;;;;;22.09;60.91;99219.60;235717;1203;138710;-61
2022/07/06 10:08:58;;;;;;;11.90;8.80;;;;;;;22.31;60.13;99224.05;235769;1203;139358;-55
2022/07/06 10:14:04;;;;;;;148.90;119.70;;;;;;;22.52;59.72;99217.71;235811;1202;138743;-57
2022/07/06 10:19:08;;;;;;;12.70;11.20;;;;;;;22.80;58.88;99212.58;235281;1203;139656;-58
2022/07/06 10:24:13;;;;;;;8.80;7.30;;;;;;;22.89;58.08;99202.04;235784;1203;139088;-58
2022/07/06 10:29:16;;;;;;;10.70;5.90;;;;;;;22.96;57.45;99216.35;235738;1203;138994;-57
2022/07/06 10:34:19;;;;;;;7.40;5.60;;;;;;;22.94;57.03;99208.37;235985;1203;139007;-58
2022/07/06 10:44:58;;;;;;;11.20;7.20;;;;;;;22.96;56.32;99214.48;235702;1203;138757;-58
2022/07/06 10:50:03;;;;;;;11.00;6.40;;;;;;;22.98;55.99;99208.34;235613;1203;139696;-57
2022/07/06 10:55:37;;;;;;;7.80;5.90;;;;;;;23.05;55.78;99208.00;235729;1203;139707;-59
2022/07/06 11:00:54;;;;;;;13.50;5.30;;;;;;;23.24;56.05;99202.67;235947;1203;139983;-58
2022/07/06 11:06:00;;;;;;;68.60;52.10;;;;;;;23.46;55.41;99203.21;235789;1204;139181;-55
2022/07/06 11:11:35;;;;;;;19.70;16.50;;;;;;;23.91;55.63;99195.23;235872;1202;139044;-57
2022/07/06 11:16:47;;;;;;;10.00;6.10;;;;;;;24.39;55.21;99186.99;235736;1203;138551;-58
2022/07/06 11:22:10;;;;;;;6.60;5.10;;;;;;;24.82;54.56;99189.19;235734;1203;138660;-57
2022/07/06 11:27:13;;;;;;;9.40;5.30;;;;;;;25.25;53.62;99183.77;235743;1203;138961;-57
2022/07/06 11:32:23;;;;;;;15.40;4.80;;;;;;;25.40;52.81;99184.78;235750;1203;138892;-58
2022/07/06 11:37:27;;;;;;;7.30;3.60;;;;;;;25.49;52.33;99185.46;235889;1204;138615;-58
2022/07/06 11:42:29;;;;;;;28.80;22.40;;;;;;;25.43;51.48;99194.01;235869;1203;138173;-55
2022/07/06 11:47:34;;;;;;;7.10;4.00;;;;;;;25.15;50.92;99191.39;235741;1203;139666;-55
2022/07/06 11:52:37;;;;;;;6.10;3.00;;;;;;;24.89;50.61;99197.80;235820;1203;138764;-56
2022/07/06 11:57:41;;;;;;;5.00;2.60;;;;;;;24.72;50.69;99208.41;235783;1204;139952;-58
2022/07/06 12:03:00;;;;;;;10.50;4.10;;;;;;;24.61;50.39;99200.30;235744;1203;139032;-59
2022/07/06 12:08:05;;;;;;;7.80;2.90;;;;;;;24.55;50.32;99194.35;235711;1204;138868;-59
2022/07/06 12:13:07;;;;;;;82.10;70.50;;;;;;;24.40;50.33;99195.98;235681;1203;138796;-55
2022/07/06 12:18:11;;;;;;;6.00;4.00;;;;;;;24.22;50.36;99196.24;236068;1203;138892;-59
2022/07/06 12:23:14;;;;;;;4.90;2.50;;;;;;;24.12;50.49;99194.00;235486;1203;138674;-59
2022/07/06 12:28:23;;;;;;;4.00;2.00;;;;;;;24.42;50.84;99188.55;235651;1203;138869;-60
2022/07/06 12:33:27;;;;;;;1.80;1.70;;;;;;;24.78;50.29;99182.36;235820;1203;138727;-59
2022/07/06 12:38:32;;;;;;;4.00;2.00;;;;;;;24.95;50.00;99177.21;235844;1204;138107;-59
2022/07/06 12:43:40;;;;;;;3.00;2.00;;;;;;;25.19;49.63;99176.23;235695;1203;138878;-59
2022/07/06 12:48:53;;;;;;;3.40;1.70;;;;;;;25.21;49.01;99175.02;235929;1203;138900;-58
2022/07/06 12:54:13;;;;;;;4.10;1.50;;;;;;;25.31;48.74;99175.67;235793;1203;139475;-58
2022/07/06 12:59:23;;;;;;;68.60;58.00;;;;;;;25.35;48.59;99173.92;235683;1203;138535;-58
2022/07/06 13:04:28;;;;;;;5.30;2.60;;;;;;;25.36;48.05;99186.00;235761;1204;138503;-60
2022/07/06 13:09:32;;;;;;;2.20;1.80;;;;;;;25.26;48.06;99179.71;235706;1202;138445;-57
2022/07/06 13:14:34;;;;;;;2.70;1.40;;;;;;;25.52;48.41;99189.15;235771;1203;139404;-60
2022/07/06 13:19:38;;;;;;;3.40;1.80;;;;;;;25.54;47.48;99198.28;235809;1204;138395;-58
2022/07/06 13:24:41;;;;;;;5.30;2.30;;;;;;;25.55;46.94;99205.26;235813;1204;138222;-58
2022/07/06 13:29:44;;;;;;;3.60;2.40;;;;;;;25.85;46.63;99212.08;235549;1204;138477;-60
2022/07/06 13:34:48;;;;;;;6.20;2.40;;;;;;;25.94;46.34;99201.00;235834;1203;138300;-60
2022/07/06 13:39:51;;;;;;;5.60;2.30;;;;;;;25.83;46.25;99201.52;235683;1203;138879;-60
2022/07/06 13:44:54;;;;;;;7.30;2.90;;;;;;;25.92;46.31;99201.27;235743;1202;138468;-59
2022/07/06 13:49:57;;;;;;;6.00;2.60;;;;;;;25.88;46.56;99212.96;235819;1202;138307;-59
2022/07/06 13:55:00;;;;;;;4.70;1.90;;;;;;;26.17;46.82;99209.39;235921;1203;138119;-59
2022/07/06 14:00:05;;;;;;;2.00;1.60;;;;;;;26.52;46.29;99208.89;236085;1203;138259;-59
2022/07/06 14:05:10;;;;;;;5.30;2.20;;;;;;;26.60;45.50;99209.52;235846;1203;138793;-59
2022/07/06 14:10:13;;;;;;;4.80;2.70;;;;;;;26.22;45.57;99223.84;235705;1203;139005;-60
2022/07/06 14:15:17;;;;;;;4.30;2.20;;;;;;;25.70;45.99;99222.59;235079;1203;138846;-61
2022/07/06 14:20:20;;;;;;;4.00;2.20;;;;;;;25.30;46.29;99233.38;235722;1203;138703;-59
2022/07/06 14:25:23;;;;;;;6.30;2.30;;;;;;;24.89;46.72;99235.17;235760;1204;138526;-60
2022/07/06 14:30:26;;;;;;;3.80;2.00;;;;;;;24.74;47.44;99227.98;235781;1203;138587;-60
2022/07/06 14:35:29;;;;;;;5.10;2.10;;;;;;;24.60;47.32;99233.10;235642;1203;138713;-59
2022/07/06 14:40:33;;;;;;;15.30;11.40;;;;;;;24.43;47.39;99247.08;235787;1203;139296;-59
2022/07/06 14:45:36;;;;;;;9.70;2.40;;;;;;;24.22;47.59;99260.70;235668;1204;138660;-60
2022/07/06 14:50:39;;;;;;;4.60;1.80;;;;;;;23.95;47.81;99267.43;235801;1204;138094;-61
2022/07/06 14:55:42;;;;;;;4.20;1.90;;;;;;;23.67;48.40;99252.94;235791;1203;138352;-59
2022/07/06 15:00:46;;;;;;;4.10;1.60;;;;;;;23.43;49.03;99249.77;235898;1203;138185;-59
2022/07/06 15:05:50;;;;;;;2.90;1.50;;;;;;;23.28;49.80;99259.07;235735;1204;139264;-58
2022/07/06 15:10:53;;;;;;;3.90;1.80;;;;;;;23.18;50.49;99250.02;235591;1203;138686;-60
2022/07/06 15:15:56;;;;;;;16.90;13.30;;;;;;;23.20;51.15;99239.28;235756;1204;138821;-59
2022/07/06 15:21:02;;;;;;;13.90;7.10;;;;;;;23.21;51.33;99234.36;235818;1203;139648;-55
2022/07/06 15:26:05;;;;;;;4.30;3.70;;;;;;;23.29;51.72;99237.64;235713;1204;139501;-59
2022/07/06 15:31:08;;;;;;;6.10;2.10;;;;;;;23.30;51.99;99233.52;235794;1203;138666;-58
2022/07/06 15:36:11;;;;;;;6.50;1.90;;;;;;;23.44;52.28;99233.77;235851;1203;139218;-59
2022/07/06 15:41:14;;;;;;;4.90;1.60;;;;;;;23.50;52.02;99238.77;235688;1204;139422;-59
2022/07/06 15:46:17;;;;;;;4.50;1.60;;;;;;;23.36;51.79;99237.01;235649;1203;140840;-58
2022/07/06 15:51:21;;;;;;;2.20;1.50;;;;;;;23.34;52.29;99231.93;235687;1203;140451;-59
2022/07/06 15:56:24;;;;;;;2.70;1.50;;;;;;;23.43;52.25;99224.98;235576;1203;138520;-56
2022/07/06 16:01:27;;;;;;;3.60;1.30;;;;;;;23.52;52.46;99220.72;235702;1203;139733;-58
2022/07/06 16:06:30;;;;;;;2.80;1.40;;;;;;;23.53;51.81;99223.98;235837;1203;138863;-58
2022/07/06 16:11:53;;;;;;;5.90;4.50;;;;;;;23.46;51.80;99230.65;235710;1204;138700;-60
2022/07/06 16:16:56;;;;;;;2.60;1.80;;;;;;;23.29;51.38;99228.89;235773;1203;138677;-58
2022/07/06 16:22:03;;;;;;;20.00;15.40;;;;;;;23.12;51.46;99227.07;235681;1201;138851;31
2022/07/06 16:27:07;;;;;;;15.60;4.90;;;;;;;23.11;51.76;99236.54;235269;1202;138952;-54
2022/07/06 16:32:10;;;;;;;14.10;3.50;;;;;;;23.28;52.40;99243.73;235638;1203;139336;-56
2022/07/06 16:37:13;;;;;;;4.40;1.50;;;;;;;23.41;52.47;99242.45;235813;1199;138736;-58
2022/07/06 16:42:17;;;;;;;3.70;1.40;;;;;;;23.43;51.97;99238.56;235919;1199;138913;-56
2022/07/06 16:47:20;;;;;;;4.30;1.50;;;;;;;23.29;51.54;99247.52;235835;1200;139203;-57
2022/07/06 16:52:24;;;;;;;44.70;38.80;;;;;;;23.20;51.76;99244.75;235800;1200;138247;-59
2022/07/06 16:57:27;;;;;;;4.70;3.00;;;;;;;23.10;51.06;99243.19;235804;1199;139493;-58
2022/07/06 17:02:30;;;;;;;20.50;14.40;;;;;;;22.94;50.59;99251.77;235885;1200;138122;-56
2022/07/06 17:07:33;;;;;;;79.10;63.10;;;;;;;22.82;50.49;99251.79;235797;1200;138653;-60
2022/07/06 17:12:36;;;;;;;3.80;2.70;;;;;;;22.80;50.37;99250.95;235896;1200;138948;-59
2022/07/06 17:17:40;;;;;;;2.50;1.70;;;;;;;22.72;50.39;99242.93;235868;1200;138437;-58
2022/07/06 17:22:43;;;;;;;4.50;2.90;;;;;;;22.72;50.33;99237.34;235789;1200;138641;-58
2022/07/06 17:27:46;;;;;;;2.80;1.20;;;;;;;22.75;50.50;99242.66;235753;1199;139295;-59
2022/07/06 17:32:56;;;;;;;2.90;1.30;;;;;;;22.74;50.23;99246.78;235711;1200;138677;-58
2022/07/06 17:38:02;;;;;;;2.80;1.30;;;;;;;22.64;49.90;99245.63;235781;1200;139406;-58
2022/07/06 17:43:06;;;;;;;72.60;65.00;;;;;;;22.51;49.49;99251.08;235681;1203;138365;-58
2022/07/06 17:48:09;;;;;;;23.10;17.80;;;;;;;22.33;49.66;99256.84;235665;1203;139251;-59
2022/07/06 17:53:12;;;;;;;4.90;3.60;;;;;;;22.16;49.58;99256.66;235751;1200;139075;-59
2022/07/06 17:58:15;;;;;;;5.00;1.80;;;;;;;22.01;49.44;99260.91;235793;1201;138823;-60
2022/07/06 18:03:18;;;;;;;4.50;1.40;;;;;;;21.92;49.53;99264.73;235787;1200;138524;-60
2022/07/06 18:08:21;;;;;;;3.20;1.50;;;;;;;21.85;49.42;99270.56;235777;1201;138639;-60
2022/07/06 18:13:25;;;;;;;51.70;44.60;;;;;;;21.73;49.19;99270.97;235738;1200;138963;-59
2022/07/06 18:18:30;;;;;;;15.20;13.00;;;;;;;21.72;49.90;99271.92;235847;1201;139025;-59
2022/07/06 18:23:33;;;;;;;3.70;2.40;;;;;;;21.68;49.79;99275.77;235788;1201;139480;-56
2022/07/06 18:28:39;;;;;;;3.60;1.50;;;;;;;21.63;49.70;99277.05;235531;1201;138883;-60
2022/07/06 18:33:44;;;;;;;51.20;37.30;;;;;;;21.59;49.96;99274.02;235529;1203;138611;-57
2022/07/06 18:38:47;;;;;;;11.60;8.90;;;;;;;21.53;50.48;99269.00;235768;1201;139375;-56
2022/07/06 18:43:50;;;;;;;5.20;2.10;;;;;;;21.54;50.54;99273.61;235690;1200;138745;-58
2022/07/06 18:48:54;;;;;;;7.70;3.40;;;;;;;21.45;50.48;99280.52;235933;1200;138359;-58
2022/07/06 18:53:57;;;;;;;98.90;74.00;;;;;;;21.44;50.80;99284.17;235715;1201;139393;-57
2022/07/06 18:59:01;;;;;;;9.60;5.70;;;;;;;21.55;51.73;99282.88;235817;1201;138777;-55
2022/07/06 19:04:05;;;;;;;16.50;10.40;;;;;;;21.86;52.18;99290.08;235713;1199;138397;-58
2022/07/06 19:09:08;;;;;;;5.40;3.20;;;;;;;22.11;52.46;99295.05;235768;1201;138880;-57
2022/07/06 19:14:11;;;;;;;93.40;80.10;;;;;;;22.21;51.75;99297.67;235731;1201;138309;-58
2022/07/06 19:19:14;;;;;;;10.00;5.00;;;;;;;22.06;50.92;99298.15;235778;1200;138795;-58
2022/07/06 19:24:17;;;;;;;5.20;3.10;;;;;;;21.94;51.08;99298.52;235859;1201;138891;-59
2022/07/06 19:29:21;;;;;;;55.20;38.40;;;;;;;21.82;51.12;99304.70;235650;1201;138748;-59
2022/07/06 19:34:24;;;;;;;8.60;3.70;;;;;;;21.86;51.47;99305.10;235621;1203;140015;-58
2022/07/06 19:39:27;;;;;;;4.60;2.20;;;;;;;21.65;51.11;99304.29;235780;1202;139298;-59
2022/07/06 19:44:30;;;;;;;9.00;3.10;;;;;;;21.44;51.35;99310.39;235692;1201;138443;-59
2022/07/06 19:49:33;;;;;;;4.00;2.50;;;;;;;21.26;51.28;99318.69;235799;1201;138807;-59
2022/07/06 19:54:36;;;;;;;4.30;2.00;;;;;;;21.16;51.29;99327.88;235874;1199;138724;-57
2022/07/06 19:59:39;;;;;;;6.70;2.30;;;;;;;21.09;51.39;99328.24;235376;1201;138756;-59
2022/07/06 20:04:42;;;;;;;5.40;2.10;;;;;;;21.00;51.39;99337.77;235769;1201;138858;-60
2022/07/06 20:09:45;;;;;;;5.00;2.00;;;;;;;20.91;51.51;99341.61;235789;1201;138645;-60
2022/07/06 20:14:49;;;;;;;8.90;3.70;;;;;;;20.87;51.65;99338.69;235772;1200;138676;-60
2022/07/06 20:19:52;;;;;;;5.10;2.10;;;;;;;20.83;51.67;99340.17;235743;1201;140082;-59
2022/07/06 20:24:55;;;;;;;3.60;1.90;;;;;;;20.78;51.69;99338.00;235825;1201;138348;-60
2022/07/06 20:29:58;;;;;;;6.40;2.40;;;;;;;20.70;51.73;99333.71;235534;1200;138830;-59
2022/07/06 20:35:01;;;;;;;9.70;3.90;;;;;;;20.64;51.86;99339.45;235777;1202;138614;-58
2022/07/06 20:40:05;;;;;;;4.40;2.50;;;;;;;20.57;52.00;99344.57;235747;1201;140725;-59
2022/07/06 20:45:08;;;;;;;6.40;2.60;;;;;;;20.51;52.20;99348.01;235787;1201;139072;-58
2022/07/06 20:50:12;;;;;;;7.50;2.20;;;;;;;20.44;52.24;99348.16;235746;1203;138536;-60
2022/07/06 20:55:15;;;;;;;5.00;2.10;;;;;;;20.40;52.47;99343.11;235694;1201;138811;-60
2022/07/06 21:00:18;;;;;;;6.20;2.40;;;;;;;20.34;52.59;99333.82;235898;1200;138724;-60
2022/07/06 21:05:22;;;;;;;4.80;2.10;;;;;;;20.26;52.64;99337.33;235720;1199;139442;-56
2022/07/06 21:10:24;;;;;;;4.30;2.20;;;;;;;20.21;52.95;99339.83;235792;1200;139492;-59
2022/07/06 21:15:28;;;;;;;6.70;2.50;;;;;;;20.18;52.99;99345.16;235750;1201;138780;-56
2022/07/06 21:20:31;;;;;;;4.40;2.30;;;;;;;20.11;53.07;99347.58;235735;1201;138678;-57
2022/07/06 21:25:34;;;;;;;8.30;3.80;;;;;;;20.02;53.25;99344.20;235745;1201;138558;-59
2022/07/06 21:30:37;;;;;;;3.90;2.40;;;;;;;19.93;53.41;99338.56;235987;1200;138559;-58
2022/07/06 21:35:40;;;;;;;5.70;2.70;;;;;;;19.90;53.72;99347.83;235773;1201;138476;-60
2022/07/06 21:40:43;;;;;;;13.80;8.40;;;;;;;19.85;53.90;99343.98;235782;1201;139059;-58
2022/07/06 21:45:46;;;;;;;6.00;3.40;;;;;;;19.81;54.08;99350.10;235712;1199;139209;-60
2022/07/06 21:50:49;;;;;;;5.60;3.20;;;;;;;19.75;54.28;99350.88;235758;1199;139143;-59
2022/07/06 21:55:53;;;;;;;6.20;3.40;;;;;;;19.74;54.47;99342.72;235743;1201;138950;-59
2022/07/06 22:00:56;;;;;;;6.50;3.30;;;;;;;19.70;54.63;99342.92;235955;1203;139216;-60
2022/07/06 22:05:59;;;;;;;5.20;3.20;;;;;;;19.69;54.73;99340.71;235732;1203;139089;-57
2022/07/06 22:11:14;;;;;;;6.90;3.20;;;;;;;19.62;54.88;99335.36;235779;1201;138759;-59
2022/07/06 22:16:18;;;;;;;6.70;3.00;;;;;;;19.56;55.01;99336.10;235829;1201;139560;-59
2022/07/06 22:21:22;;;;;;;6.00;3.40;;;;;;;19.52;55.11;99337.73;235797;1201;139235;-60
2022/07/06 22:26:25;;;;;;;8.40;3.20;;;;;;;19.48;55.15;99342.11;235738;1201;139303;-57
2022/07/06 22:31:28;;;;;;;4.60;3.10;;;;;;;19.43;55.08;99333.01;235794;1201;139255;-58
2022/07/06 22:36:32;;;;;;;7.00;3.10;;;;;;;19.39;55.28;99335.89;235790;1202;138674;-56
2022/07/06 22:41:36;;;;;;;6.30;2.90;;;;;;;19.36;55.21;99327.87;235693;1201;139590;-57
2022/07/06 22:46:39;;;;;;;6.40;3.10;;;;;;;19.34;55.44;99324.66;235760;1200;139847;-59
2022/07/06 22:51:42;;;;;;;9.30;2.80;;;;;;;19.33;55.54;99328.02;235864;1200;138455;-61
2022/07/06 22:56:46;;;;;;;8.00;2.70;;;;;;;19.31;55.34;99337.16;235813;1201;138422;-61
2022/07/06 23:01:49;;;;;;;6.40;3.40;;;;;;;19.31;55.58;99341.67;235903;1200;138729;-58
2022/07/06 23:06:52;;;;;;;8.10;3.20;;;;;;;19.31;55.50;99341.38;235965;1201;138766;-60
2022/07/06 23:11:55;;;;;;;5.50;3.50;;;;;;;19.27;55.72;99335.20;235864;1200;138473;-59
2022/07/06 23:16:58;;;;;;;5.60;2.70;;;;;;;19.25;55.72;99337.00;235842;1201;139547;-61
2022/07/06 23:22:01;;;;;;;6.20;3.30;;;;;;;19.24;55.78;99336.05;235626;1201;138304;-60
2022/07/06 23:27:04;;;;;;;8.80;3.40;;;;;;;19.25;55.73;99332.94;235689;1203;138939;-61
2022/07/06 23:32:08;;;;;;;8.40;3.40;;;;;;;19.24;55.98;99326.48;235523;1203;140332;-58